Time;durP1;ratioP1;P1;durP2;ratioP2;P2;SDS_P1;SDS_P2;PMS_P1;PMS_P2;Temp;Humidity;BMP_temperature;BMP_pressure;BME280_temperature;BME280_humidity;BME280_pressure;Samples;Min_cycle;Max_cycle;Signal;HPM_P1;HPM_P2
2022/09/26 00:01:11;;;;;;;0.10;0.10;;;11.40;99.90;;;;;;5031267;28;20025;-75
2022/09/26 00:03:38;;;;;;;0.00;0.00;;;11.40;99.90;;;;;;5030088;28;20080;-75
2022/09/26 00:06:06;;;;;;;0.20;0.20;;;11.50;99.90;;;;;;5031260;28;20025;-75
2022/09/26 00:08:33;;;;;;;0.10;0.10;;;11.50;99.90;;;;;;5031394;28;20054;-74
2022/09/26 00:11:01;;;;;;;0.00;0.00;;;11.40;99.90;;;;;;5031344;28;20049;-75
2022/09/26 00:13:29;;;;;;;0.08;0.08;;;11.40;99.90;;;;;;5032207;28;20041;-75
2022/09/26 00:15:55;;;;;;;0.10;0.10;;;11.40;99.90;;;;;;5034801;28;20025;-75
2022/09/26 00:18:22;;;;;;;0.00;0.00;;;11.50;99.90;;;;;;5034927;28;20120;-75
2022/09/26 00:20:48;;;;;;;0.13;0.13;;;11.50;99.90;;;;;;5033663;28;20477;-75
2022/09/26 00:23:15;;;;;;;0.10;0.10;;;11.40;99.90;;;;;;5034725;28;20029;-75
2022/09/26 00:25:49;;;;;;;0.00;0.00;;;11.40;99.90;;;;;;5034542;28;20032;-75
2022/09/26 00:28:15;;;;;;;0.00;0.00;;;11.30;99.90;;;;;;5034558;28;20060;-75
2022/09/26 00:30:43;;;;;;;0.20;0.20;;;11.40;99.90;;;;;;5016884;28;20116;-75
2022/09/26 00:33:10;;;;;;;0.00;0.00;;;11.40;99.90;;;;;;5034555;28;20056;-75
2022/09/26 00:35:37;;;;;;;0.10;0.10;;;11.40;99.90;;;;;;5034490;28;20029;-75
2022/09/26 00:38:04;;;;;;;0.30;0.30;;;11.30;99.90;;;;;;5034574;28;20103;-75
2022/09/26 00:40:30;;;;;;;0.15;0.15;;;11.20;99.90;;;;;;5033186;28;20033;-75
2022/09/26 00:42:57;;;;;;;0.05;0.05;;;11.10;99.90;;;;;;5033131;28;20033;-74
2022/09/26 00:45:29;;;;;;;0.00;0.00;;;11.10;99.90;;;;;;5034331;28;20032;-74
2022/09/26 00:48:00;;;;;;;0.32;0.32;;;11.00;99.90;;;;;;5033239;28;20033;-74
2022/09/26 00:50:31;;;;;;;0.25;0.17;;;11.00;99.90;;;;;;5034453;28;20029;-74
2022/09/26 00:52:56;;;;;;;0.10;0.10;;;11.00;99.90;;;;;;5032876;28;20109;-74
2022/09/26 00:55:27;;;;;;;0.20;0.20;;;11.10;99.90;;;;;;5033968;28;20481;-74
2022/09/26 00:58:04;;;;;;;0.25;0.20;;;11.20;99.90;;;;;;5034179;28;20022;-74
2022/09/26 01:00:30;;;;;;;0.30;0.20;;;11.10;99.90;;;;;;5034035;28;20063;-74
2022/09/26 01:02:56;;;;;;;0.00;0.00;;;11.10;99.90;;;;;;5034527;28;20389;-74
2022/09/26 01:05:23;;;;;;;0.08;0.08;;;11.20;99.90;;;;;;5033841;28;20084;-74
2022/09/26 01:07:51;;;;;;;0.10;0.10;;;11.30;99.90;;;;;;5033997;28;20021;-74
2022/09/26 01:10:17;;;;;;;0.10;0.10;;;11.30;99.90;;;;;;5033854;28;20026;-74
2022/09/26 01:12:43;;;;;;;0.00;0.00;;;11.30;99.90;;;;;;5033830;28;20032;-74
2022/09/26 01:15:10;;;;;;;0.00;0.00;;;11.20;99.90;;;;;;5033714;28;20021;-74
2022/09/26 01:17:38;;;;;;;0.10;0.10;;;11.10;99.90;;;;;;5033823;28;20018;-74
2022/09/26 01:20:04;;;;;;;0.00;0.00;;;11.20;99.90;;;;;;5033632;28;20029;-74
2022/09/26 01:22:52;;;;;;;0.10;0.10;;;11.20;99.90;;;;;;5033612;28;20104;-74
2022/09/26 01:25:27;;;;;;;0.10;0.10;;;11.10;99.90;;;;;;5032220;28;20506;-74
2022/09/26 01:28:21;;;;;;;0.00;0.00;;;11.00;99.90;;;;;;5033350;28;20067;-75
2022/09/26 01:31:08;;;;;;;1.13;0.65;;;11.00;99.90;;;;;;5033621;28;20025;-74
2022/09/26 01:33:44;;;;;;;1.10;1.00;;;10.90;99.90;;;;;;5033370;28;20041;-74
2022/09/26 01:36:25;;;;;;;0.03;0.03;;;10.90;99.90;;;;;;5033476;28;20481;-74
2022/09/26 01:38:51;;;;;;;0.30;0.30;;;10.90;99.90;;;;;;5033493;28;20576;-74
2022/09/26 01:41:26;;;;;;;0.00;0.00;;;10.90;99.90;;;;;;5032019;28;20117;-74
2022/09/26 01:44:26;;;;;;;0.00;0.00;;;11.10;99.90;;;;;;5033256;28;20025;-74
2022/09/26 01:47:09;;;;;;;0.00;0.00;;;11.20;99.90;;;;;;5033161;28;20071;-74
2022/09/26 01:49:43;;;;;;;0.05;0.05;;;11.30;99.90;;;;;;5033263;28;20029;-74
2022/09/26 01:52:41;;;;;;;0.03;0.03;;;11.50;99.90;;;;;;5033215;28;20053;-74
2022/09/26 01:55:10;;;;;;;0.10;0.10;;;11.30;99.90;;;;;;5031466;28;20030;-74
2022/09/26 01:58:05;;;;;;;0.00;0.00;;;11.20;99.90;;;;;;5031799;28;20026;-74
2022/09/26 02:00:33;;;;;;;0.10;0.10;;;11.30;99.90;;;;;;5031699;28;20046;-74
2022/09/26 02:03:00;;;;;;;2.00;0.20;;;11.40;99.90;;;;;;5032893;28;20432;-74
2022/09/26 02:05:32;;;;;;;0.00;0.00;;;11.20;99.90;;;;;;5032972;28;20021;-74
2022/09/26 02:08:03;;;;;;;;;;;11.20;99.90;;;;;;5033132;28;20022;-74
2022/09/26 02:10:46;;;;;;;0.30;0.30;;;11.20;99.90;;;;;;5032637;28;19905;-74
2022/09/26 02:13:25;;;;;;;0.08;0.08;;;11.10;99.90;;;;;;5014795;28;20072;-74
2022/09/26 02:15:57;;;;;;;0.00;0.00;;;11.00;99.90;;;;;;5032450;28;20017;-74
2022/09/26 02:18:30;;;;;;;0.10;0.10;;;10.90;99.90;;;;;;5032545;28;20017;-74
2022/09/26 02:21:10;;;;;;;0.47;0.35;;;10.90;99.90;;;;;;5032404;28;20030;-74
2022/09/26 02:23:36;;;;;;;0.00;0.00;;;10.90;99.90;;;;;;5031073;28;20018;-74
2022/09/26 02:26:02;;;;;;;0.00;0.00;;;10.90;99.90;;;;;;5032266;28;20025;-74
2022/09/26 02:28:30;;;;;;;0.00;0.00;;;10.90;99.90;;;;;;5030782;28;20017;-74
2022/09/26 02:30:59;;;;;;;0.20;0.05;;;10.90;99.90;;;;;;5032295;28;20025;-75
2022/09/26 02:33:27;;;;;;;0.00;0.00;;;11.10;99.90;;;;;;5032180;28;20104;-74
2022/09/26 02:35:53;;;;;;;0.40;0.40;;;11.10;99.90;;;;;;5030148;28;20435;-74
2022/09/26 02:38:19;;;;;;;0.00;0.00;;;11.10;99.90;;;;;;5032130;28;20037;-74
2022/09/26 02:40:50;;;;;;;0.10;0.10;;;11.10;99.90;;;;;;5032027;28;20112;-74
2022/09/26 02:43:40;;;;;;;0.08;0.08;;;10.90;99.90;;;;;;5014490;28;20021;-74
2022/09/26 02:46:43;;;;;;;0.17;0.17;;;10.90;99.90;;;;;;5031951;28;20028;-74
2022/09/26 02:49:53;;;;;;;0.10;0.10;;;11.00;99.90;;;;;;5030785;28;20088;-74
2022/09/26 02:52:27;;;;;;;0.10;0.10;;;10.80;99.90;;;;;;4990265;28;20517;-74
2022/09/26 02:55:10;;;;;;;0.52;0.32;;;11.00;99.90;;;;;;5021263;28;20037;-74
2022/09/26 02:58:04;;;;;;;0.20;0.20;;;10.90;99.90;;;;;;5032022;28;20048;-74
2022/09/26 03:01:17;;;;;;;0.38;0.22;;;10.90;99.90;;;;;;5030650;28;20492;-75
2022/09/26 03:03:57;;;;;;;0.00;0.00;;;10.90;99.90;;;;;;5030832;28;20029;-74
2022/09/26 03:06:28;;;;;;;0.30;0.30;;;10.70;99.90;;;;;;5030719;28;20419;-74
2022/09/26 03:08:56;;;;;;;0.40;0.40;;;10.90;99.90;;;;;;5031690;28;20024;-74
2022/09/26 03:11:25;;;;;;;0.00;0.00;;;10.80;99.90;;;;;;5030628;28;20025;-74
2022/09/26 03:13:53;;;;;;;0.10;0.10;;;10.80;99.90;;;;;;5031646;28;20032;-74
2022/09/26 03:16:22;;;;;;;0.13;0.13;;;10.70;99.90;;;;;;5031665;28;20489;-74
2022/09/26 03:18:54;;;;;;;0.25;0.25;;;10.60;99.90;;;;;;5031804;28;20028;-74
2022/09/26 03:21:20;;;;;;;0.10;0.10;;;10.40;99.90;;;;;;5031755;28;20033;-74
2022/09/26 03:23:46;;;;;;;0.68;0.32;;;10.50;99.90;;;;;;5030467;28;20021;-74
2022/09/26 03:26:23;;;;;;;1.17;0.60;;;10.50;99.90;;;;;;5030049;28;20017;-74
2022/09/26 03:28:53;;;;;;;0.10;0.10;;;10.50;99.90;;;;;;5030323;28;20117;-74
2022/09/26 03:31:24;;;;;;;0.38;0.38;;;10.60;99.90;;;;;;5030654;28;20040;-74
2022/09/26 03:33:51;;;;;;;0.10;0.10;;;10.70;99.90;;;;;;5030495;28;20034;-74
2022/09/26 03:36:17;;;;;;;0.20;0.20;;;10.60;99.90;;;;;;5031489;28;20530;-74
2022/09/26 03:38:43;;;;;;;0.20;0.20;;;10.70;99.90;;;;;;5030409;28;20036;-74
2022/09/26 03:41:09;;;;;;;0.00;0.00;;;10.70;99.90;;;;;;5031682;28;20029;-74
2022/09/26 03:43:35;;;;;;;0.10;0.10;;;10.80;99.90;;;;;;5031617;28;20018;-75
2022/09/26 03:46:05;;;;;;;0.15;0.15;;;11.00;99.90;;;;;;5031565;28;20029;-74
2022/09/26 03:48:32;;;;;;;0.00;0.00;;;11.00;99.90;;;;;;5035451;28;20492;-75
2022/09/26 03:51:06;;;;;;;0.10;0.10;;;11.10;99.90;;;;;;5035335;28;20029;-74
2022/09/26 03:53:33;;;;;;;0.00;0.00;;;11.10;99.90;;;;;;5034010;28;20041;-74
2022/09/26 03:56:05;;;;;;;0.10;0.10;;;10.90;99.90;;;;;;5035096;28;20037;-74
2022/09/26 03:58:31;;;;;;;0.10;0.10;;;11.00;99.90;;;;;;5033998;28;20038;-74
2022/09/26 04:01:20;;;;;;;0.20;0.20;;;10.90;99.90;;;;;;5035199;28;20060;-74
2022/09/26 04:03:47;;;;;;;0.47;0.47;;;10.90;99.90;;;;;;5033771;28;20021;-74
2022/09/26 04:06:18;;;;;;;0.00;0.00;;;11.00;99.90;;;;;;5035075;28;20060;-75
2022/09/26 04:08:47;;;;;;;0.13;0.13;;;11.00;99.90;;;;;;5033904;28;20112;-75
2022/09/26 04:11:14;;;;;;;0.00;0.00;;;11.00;99.90;;;;;;5033663;28;20640;-74
2022/09/26 04:13:42;;;;;;;0.10;0.10;;;11.00;99.90;;;;;;5033685;28;20511;-74
2022/09/26 04:16:09;;;;;;;0.25;0.25;;;11.10;99.90;;;;;;5034828;28;20082;-74
2022/09/26 04:18:35;;;;;;;0.00;0.00;;;11.10;99.90;;;;;;5017312;28;20027;-74
2022/09/26 04:21:05;;;;;;;0.10;0.10;;;11.00;99.90;;;;;;5034794;28;20038;-74
2022/09/26 04:23:34;;;;;;;0.10;0.10;;;11.00;99.90;;;;;;5034789;28;20275;-75
2022/09/26 04:26:07;;;;;;;0.10;0.10;;;11.10;99.90;;;;;;5016861;28;20025;-74
2022/09/26 04:28:34;;;;;;;0.10;0.10;;;11.10;99.90;;;;;;5034406;28;20022;-74
2022/09/26 04:31:02;;;;;;;0.05;0.05;;;11.10;99.90;;;;;;5034649;28;20037;-74
2022/09/26 04:33:31;;;;;;;0.10;0.10;;;11.00;99.90;;;;;;5034406;28;20040;-74
2022/09/26 04:36:01;;;;;;;0.00;0.00;;;11.10;99.90;;;;;;5034455;28;20021;-74
2022/09/26 04:38:31;;;;;;;0.07;0.07;;;11.00;99.90;;;;;;5034724;28;20032;-74
2022/09/26 04:41:11;;;;;;;0.20;0.20;;;11.00;99.90;;;;;;5034260;28;20026;-74
2022/09/26 04:43:38;;;;;;;0.00;0.00;;;11.00;99.90;;;;;;5033099;28;20592;-74
2022/09/26 04:46:08;;;;;;;0.20;0.20;;;10.80;99.90;;;;;;5034252;28;20055;-74
2022/09/26 04:48:35;;;;;;;0.10;0.10;;;10.80;99.90;;;;;;5034194;28;20044;-74
2022/09/26 04:51:06;;;;;;;0.17;0.17;;;10.70;99.90;;;;;;5034219;28;20064;-74
2022/09/26 04:53:33;;;;;;;0.10;0.10;;;10.70;99.90;;;;;;5034098;28;20104;-74
2022/09/26 04:55:58;;;;;;;0.10;0.10;;;10.80;99.90;;;;;;5033929;28;20034;-75
2022/09/26 04:58:25;;;;;;;0.10;0.10;;;11.10;99.90;;;;;;5032206;28;20385;-74
2022/09/26 05:00:51;;;;;;;0.10;0.10;;;11.10;99.90;;;;;;5033999;28;20029;-74
2022/09/26 05:03:17;;;;;;;0.35;0.17;;;11.20;99.90;;;;;;5032820;28;20025;-74
2022/09/26 05:05:46;;;;;;;0.10;0.10;;;11.20;99.90;;;;;;5033964;28;20072;-74
2022/09/26 05:08:15;;;;;;;0.10;0.10;;;11.20;99.90;;;;;;5032661;28;20017;-74
2022/09/26 05:10:42;;;;;;;0.10;0.10;;;11.40;99.90;;;;;;5033943;28;20026;-75
2022/09/26 05:13:09;;;;;;;0.10;0.10;;;11.20;99.90;;;;;;5033669;28;20056;-74
2022/09/26 05:15:38;;;;;;;0.10;0.10;;;11.10;99.90;;;;;;5026801;28;20018;-74
2022/09/26 05:18:06;;;;;;;0.10;0.10;;;11.10;99.90;;;;;;5033320;28;20017;-74
2022/09/26 05:20:36;;;;;;;0.13;0.13;;;11.00;99.90;;;;;;5032756;28;20156;-74
2022/09/26 05:23:03;;;;;;;0.10;0.10;;;11.10;99.90;;;;;;5036179;28;20010;-74
2022/09/26 05:28:19;;;;;;;0.00;0.00;;;11.10;99.90;;;;;;5036689;28;20026;-74
2022/09/26 05:30:45;;;;;;;0.20;0.20;;;11.00;99.90;;;;;;5031773;28;20117;-74
2022/09/26 05:33:12;;;;;;;0.10;0.10;;;11.10;99.90;;;;;;5032475;28;20025;-74
2022/09/26 05:35:38;;;;;;;0.10;0.10;;;11.10;99.90;;;;;;5031887;28;20036;-74
2022/09/26 05:38:04;;;;;;;0.10;0.10;;;11.10;99.90;;;;;;5032008;28;20030;-74
2022/09/26 05:43:15;;;;;;;0.10;0.10;;;11.10;99.90;;;;;;5032904;28;20211;-74
2022/09/26 05:45:41;;;;;;;0.10;0.10;;;11.00;99.90;;;;;;5031680;28;20127;-74
2022/09/26 05:48:08;;;;;;;0.10;0.10;;;10.90;99.90;;;;;;5030909;28;20025;-75
2022/09/26 05:50:34;;;;;;;0.15;0.15;;;10.90;99.90;;;;;;5032793;28;20060;-74
2022/09/26 05:53:01;;;;;;;0.10;0.10;;;10.90;99.90;;;;;;5032858;28;20037;-74
2022/09/26 05:55:28;;;;;;;0.10;0.10;;;11.00;99.90;;;;;;5032548;28;20120;-74
2022/09/26 05:57:57;;;;;;;0.10;0.10;;;10.80;99.90;;;;;;5031188;28;20481;-74
2022/09/26 06:00:25;;;;;;;0.00;0.00;;;10.80;99.90;;;;;;5029400;28;20493;-74
2022/09/26 06:02:58;;;;;;;0.30;0.30;;;10.80;99.90;;;;;;5031544;28;20060;-74
2022/09/26 06:05:24;;;;;;;0.10;0.10;;;10.90;99.90;;;;;;5031334;28;20021;-74
2022/09/26 06:07:51;;;;;;;0.00;0.00;;;11.00;99.90;;;;;;5028668;28;20037;-74
2022/09/26 06:10:18;;;;;;;0.55;0.43;;;11.00;99.90;;;;;;5030230;28;20025;-74
2022/09/26 06:12:45;;;;;;;0.20;0.20;;;11.10;99.90;;;;;;5021828;28;20056;-75
2022/09/26 06:15:11;;;;;;;0.10;0.10;;;11.00;99.90;;;;;;5025922;28;20029;-74
2022/09/26 06:17:37;;;;;;;0.10;0.10;;;11.10;99.90;;;;;;5025166;28;20413;-74
2022/09/26 06:20:04;;;;;;;0.60;0.60;;;11.10;99.90;;;;;;5020200;28;21354;-74
2022/09/26 06:22:32;;;;;;;0.13;0.13;;;11.10;99.90;;;;;;5019595;28;20559;-75
2022/09/26 06:24:58;;;;;;;0.10;0.10;;;11.10;99.90;;;;;;5020361;28;20043;-75
2022/09/26 06:27:24;;;;;;;0.15;0.15;;;11.20;99.90;;;;;;5021271;28;20025;-75
2022/09/26 06:29:50;;;;;;;0.10;0.10;;;11.20;99.90;;;;;;5021048;28;20029;-75
2022/09/26 06:32:16;;;;;;;0.52;0.52;;;11.00;99.90;;;;;;5003204;28;20061;-74
2022/09/26 06:34:42;;;;;;;0.10;0.10;;;11.10;99.90;;;;;;5021165;28;20122;-75
2022/09/26 06:37:08;;;;;;;0.20;0.20;;;11.20;99.90;;;;;;5020968;28;20044;-75
2022/09/26 06:39:36;;;;;;;0.20;0.20;;;11.40;99.90;;;;;;5020755;28;20040;-74
2022/09/26 06:42:06;;;;;;;0.10;0.10;;;11.20;99.90;;;;;;5018852;28;20039;-74
2022/09/26 06:44:32;;;;;;;0.10;0.10;;;11.10;99.90;;;;;;5019251;28;20067;-75
2022/09/26 06:47:01;;;;;;;0.50;0.50;;;11.00;99.90;;;;;;5018914;28;20556;-74
2022/09/26 06:49:27;;;;;;;0.85;0.28;;;11.10;99.90;;;;;;5019697;28;20037;-74
2022/09/26 06:51:53;;;;;;;0.10;0.10;;;11.00;99.90;;;;;;5020953;28;20042;-73
2022/09/26 06:54:19;;;;;;;0.05;0.05;;;11.00;99.90;;;;;;5020782;28;20037;-74
2022/09/26 06:56:45;;;;;;;0.10;0.10;;;11.10;99.90;;;;;;5020651;28;20472;-74
2022/09/26 06:59:11;;;;;;;0.10;0.10;;;11.20;99.90;;;;;;5020080;28;20037;-75
2022/09/26 07:01:37;;;;;;;0.10;0.10;;;11.40;99.90;;;;;;5020222;28;20048;-75
2022/09/26 07:04:03;;;;;;;0.10;0.10;;;11.30;99.90;;;;;;5020101;28;20045;-74
2022/09/26 07:06:29;;;;;;;1.55;1.30;;;11.40;99.90;;;;;;5018780;28;20972;-74
2022/09/26 07:08:55;;;;;;;0.20;0.20;;;11.60;99.90;;;;;;5020828;28;20033;-74
2022/09/26 07:11:21;;;;;;;0.10;0.10;;;11.70;99.90;;;;;;5037348;22;20382;-72
2022/09/26 07:13:47;;;;;;;0.10;0.10;;;11.70;99.90;;;;;;5005469;28;20574;-75
2022/09/26 07:16:13;;;;;;;0.10;0.10;;;11.80;99.90;;;;;;5007346;28;20030;-75
2022/09/26 07:18:39;;;;;;;0.10;0.10;;;11.90;99.90;;;;;;5025108;28;20642;-73
2022/09/26 07:21:05;;;;;;;0.10;0.10;;;11.90;99.90;;;;;;5025328;28;20068;-73
2022/09/26 07:23:31;;;;;;;0.13;0.13;;;11.90;99.90;;;;;;5028194;28;20053;-73
2022/09/26 07:25:57;;;;;;;0.10;0.10;;;12.10;99.90;;;;;;5009495;28;20049;-73
2022/09/26 07:28:25;;;;;;;0.10;0.10;;;12.00;99.90;;;;;;5027824;28;20606;-74
2022/09/26 07:30:55;;;;;;;0.10;0.10;;;12.00;99.90;;;;;;5028245;28;20022;-73
2022/09/26 07:33:22;;;;;;;3.33;0.50;;;12.10;99.90;;;;;;5010044;28;20029;-73
2022/09/26 07:35:48;;;;;;;0.10;0.10;;;12.10;99.90;;;;;;5028462;28;20041;-74
2022/09/26 07:38:14;;;;;;;0.10;0.10;;;12.10;99.90;;;;;;5028897;28;20402;-73
2022/09/26 07:40:42;;;;;;;0.28;0.28;;;12.10;99.90;;;;;;5011252;28;20445;-73
2022/09/26 07:43:09;;;;;;;0.10;0.10;;;12.00;99.90;;;;;;5011004;28;20025;-74
2022/09/26 07:51:10;;;;;;;0.10;0.10;;;12.20;99.90;;;;;;5009432;28;20091;-73
2022/09/26 07:53:38;;;;;;;0.10;0.10;;;12.30;99.90;;;;;;5027720;28;20033;-73
2022/09/26 07:56:04;;;;;;;0.10;0.10;;;12.10;99.90;;;;;;5009688;28;20033;-73
2022/09/26 07:58:31;;;;;;;0.20;0.20;;;12.20;99.90;;;;;;5028017;28;20048;-73
2022/09/26 08:00:57;;;;;;;0.10;0.10;;;12.20;99.90;;;;;;5027020;28;20029;-73
2022/09/26 08:03:26;;;;;;;0.10;0.10;;;12.10;99.90;;;;;;5027111;28;20079;-73
2022/09/26 08:05:55;;;;;;;0.15;0.15;;;12.10;99.90;;;;;;4993201;28;20079;-73
2022/09/26 08:08:20;;;;;;;0.10;0.10;;;12.10;99.90;;;;;;5027994;28;20026;-73
2022/09/26 08:10:46;;;;;;;0.30;0.30;;;12.00;99.90;;;;;;5027751;28;20029;-74
2022/09/26 08:13:12;;;;;;;0.10;0.10;;;12.00;99.90;;;;;;5027365;28;20056;-73
2022/09/26 08:15:38;;;;;;;0.10;0.10;;;12.10;99.90;;;;;;5009138;28;20342;-74
2022/09/26 08:18:04;;;;;;;0.10;0.10;;;12.10;99.90;;;;;;5027731;28;20385;-73
2022/09/26 08:20:29;;;;;;;0.20;0.20;;;12.10;99.90;;;;;;5009371;28;20297;-73
2022/09/26 08:22:55;;;;;;;0.10;0.10;;;12.20;99.90;;;;;;5027389;28;20112;-73
2022/09/26 08:25:21;;;;;;;0.20;0.20;;;12.20;99.90;;;;;;5027098;28;20021;-73
2022/09/26 08:27:49;;;;;;;0.20;0.20;;;12.30;99.90;;;;;;5027061;28;20025;-73
2022/09/26 08:30:15;;;;;;;1.05;0.52;;;12.50;99.90;;;;;;5025929;28;20048;-73
2022/09/26 08:32:41;;;;;;;0.40;0.40;;;12.40;99.90;;;;;;5006946;28;20059;-73
2022/09/26 08:35:13;;;;;;;0.63;0.32;;;12.40;99.90;;;;;;5027107;28;20037;-73
2022/09/26 08:37:39;;;;;;;0.75;0.35;;;12.50;99.90;;;;;;4992348;28;20367;-73
2022/09/26 08:40:06;;;;;;;0.28;0.28;;;12.50;99.90;;;;;;5027347;28;20041;-73
2022/09/26 08:42:50;;;;;;;6.93;2.83;;;12.70;99.90;;;;;;5026733;28;20133;-73
2022/09/26 08:48:38;;;;;;;4.22;1.63;;;13.30;99.90;;;;;;5027099;28;20028;-73
2022/09/26 08:51:19;;;;;;;0.10;0.10;;;13.10;99.90;;;;;;5008579;28;20033;-73
2022/09/26 08:53:51;;;;;;;1.23;1.23;;;13.10;99.90;;;;;;5026884;28;20037;-74
2022/09/26 08:56:30;;;;;;;0.25;0.25;;;13.10;99.90;;;;;;5008253;28;20038;-73
2022/09/26 08:58:58;;;;;;;0.93;0.93;;;13.10;99.90;;;;;;5027290;28;20048;-73
2022/09/26 09:01:28;;;;;;;0.10;0.10;;;13.30;99.90;;;;;;4992745;28;20091;-73
2022/09/26 09:04:02;;;;;;;6.72;0.70;;;13.50;99.90;;;;;;5027569;28;20021;-74
2022/09/26 09:06:28;;;;;;;0.20;0.20;;;13.40;99.90;;;;;;5028209;28;20037;-73
2022/09/26 09:08:55;;;;;;;0.20;0.20;;;13.50;99.90;;;;;;5029083;28;20076;-73
2022/09/26 09:11:42;;;;;;;0.20;0.20;;;13.70;99.90;;;;;;5027968;28;20033;-76
2022/09/26 09:14:29;;;;;;;0.10;0.10;;;14.00;99.90;;;;;;5022725;28;20484;-75
2022/09/26 09:17:01;;;;;;;0.10;0.10;;;14.00;99.90;;;;;;5021889;28;20026;-74
2022/09/26 09:19:27;;;;;;;;;;;14.60;99.90;;;;;;5004648;28;20033;-75
2022/09/26 09:22:11;;;;;;;0.03;0.03;;;14.90;99.90;;;;;;5022447;28;19928;-74
2022/09/26 09:24:56;;;;;;;0.30;0.30;;;15.30;99.90;;;;;;5022491;28;20385;-77
2022/09/26 09:27:40;;;;;;;0.20;0.20;;;15.30;99.90;;;;;;5022283;28;20033;-74
2022/09/26 09:30:32;;;;;;;0.98;0.93;;;15.20;99.90;;;;;;5004175;28;20917;-74
2022/09/26 09:33:02;;;;;;;0.10;0.10;;;14.40;99.90;;;;;;5001630;28;20033;-74
2022/09/26 09:35:42;;;;;;;0.52;0.52;;;14.20;99.90;;;;;;5021867;28;20036;-74
2022/09/26 09:38:16;;;;;;;0.20;0.20;;;14.60;99.90;;;;;;5004038;28;20362;-74
2022/09/26 09:40:51;;;;;;;2.08;1.08;;;15.60;99.90;;;;;;5002823;28;20033;-74
2022/09/26 09:43:46;;;;;;;0.10;0.10;;;16.20;99.90;;;;;;5003641;28;20099;-74
2022/09/26 09:46:34;;;;;;;0.00;0.00;;;16.00;99.90;;;;;;5003252;28;20116;-73
2022/09/26 09:49:09;;;;;;;0.10;0.10;;;15.90;99.90;;;;;;5002779;28;20029;-74
2022/09/26 09:51:46;;;;;;;0.10;0.10;;;16.10;99.90;;;;;;5020269;28;20065;-74
2022/09/26 09:54:25;;;;;;;0.00;0.00;;;16.10;99.90;;;;;;5021450;28;20148;-76
2022/09/26 09:57:14;;;;;;;0.60;0.60;;;16.00;99.90;;;;;;5020157;28;20037;-74
2022/09/26 10:00:15;;;;;;;0.40;0.40;;;15.90;99.90;;;;;;5003672;28;20045;-74
2022/09/26 10:02:59;;;;;;;0.30;0.30;;;15.80;99.90;;;;;;5021266;28;20068;-74
2022/09/26 10:05:44;;;;;;;0.10;0.10;;;15.50;99.90;;;;;;5021220;28;20025;-75
2022/09/26 10:08:23;;;;;;;0.47;0.47;;;15.30;99.90;;;;;;5002650;28;20194;-75
2022/09/26 10:11:03;;;;;;;0.30;0.30;;;15.40;99.90;;;;;;5021101;28;20104;-75
2022/09/26 10:13:30;;;;;;;0.28;0.28;;;16.50;99.90;;;;;;5021210;28;20041;-75
2022/09/26 10:16:03;;;;;;;1.35;1.27;;;17.80;99.90;;;;;;4986733;28;20065;-75
2022/09/26 10:18:30;;;;;;;0.52;0.52;;;18.70;99.90;;;;;;5021394;28;20564;-75
2022/09/26 10:21:07;;;;;;;0.10;0.10;;;18.40;99.90;;;;;;5003273;28;20435;-75
2022/09/26 10:23:39;;;;;;;0.10;0.10;;;17.90;99.90;;;;;;5002531;28;20049;-74
2022/09/26 10:26:08;;;;;;;0.30;0.30;;;17.30;99.90;;;;;;5020980;28;20406;-75
2022/09/26 10:28:51;;;;;;;0.10;0.10;;;17.20;99.90;;;;;;5021265;28;20029;-75
2022/09/26 10:31:38;;;;;;;0.40;0.40;;;16.70;99.90;;;;;;5002770;28;20475;-75
2022/09/26 10:34:17;;;;;;;0.10;0.10;;;16.40;99.90;;;;;;5002556;28;20509;-75
2022/09/26 10:36:43;;;;;;;0.10;0.10;;;16.10;99.90;;;;;;5003020;28;20074;-75
2022/09/26 10:42:00;;;;;;;0.13;0.13;;;15.40;99.90;;;;;;5020531;28;20025;-75
2022/09/26 10:44:35;;;;;;;0.30;0.30;;;15.50;99.90;;;;;;5003115;28;20141;-75
2022/09/26 10:47:07;;;;;;;0.65;0.30;;;15.40;99.90;;;;;;4986661;28;20053;-74
2022/09/26 10:49:49;;;;;;;0.55;0.55;;;15.00;99.90;;;;;;5002899;28;20033;-75
2022/09/26 10:52:44;;;;;;;0.10;0.10;;;14.50;99.90;;;;;;5020627;28;20036;-75
2022/09/26 10:55:28;;;;;;;0.20;0.20;;;14.10;99.90;;;;;;5002178;28;20403;-75
2022/09/26 10:57:58;;;;;;;0.30;0.30;;;13.90;99.90;;;;;;5000814;28;20030;-75
2022/09/26 11:00:36;;;;;;;0.10;0.10;;;13.50;99.90;;;;;;5002531;28;20041;-75
2022/09/26 11:03:15;;;;;;;0.20;0.20;;;13.50;99.90;;;;;;5002152;28;20108;-75
2022/09/26 11:05:56;;;;;;;0.10;0.10;;;14.30;99.90;;;;;;5019662;28;20038;-75
2022/09/26 11:08:36;;;;;;;0.38;0.38;;;14.60;99.90;;;;;;5002230;28;20096;-75
2022/09/26 11:11:13;;;;;;;0.10;0.10;;;14.20;99.90;;;;;;5020081;28;20033;-75
2022/09/26 11:13:46;;;;;;;0.10;0.10;;;13.90;99.90;;;;;;5020189;28;20069;-75
2022/09/26 11:16:18;;;;;;;0.28;0.28;;;14.00;99.90;;;;;;5000876;28;20034;-75
2022/09/26 11:18:44;;;;;;;1.08;0.80;;;14.10;99.90;;;;;;5002210;28;20381;-75
2022/09/26 11:22:00;;;;;;;0.20;0.20;;;14.00;99.90;;;;;;5019988;28;20175;-75
2022/09/26 11:24:25;;;;;;;0.10;0.10;;;13.80;99.90;;;;;;4949178;28;20051;-75
2022/09/26 11:27:18;;;;;;;0.20;0.20;;;13.80;99.90;;;;;;5020200;28;20477;-75
2022/09/26 11:29:57;;;;;;;0.10;0.10;;;14.10;99.90;;;;;;5020471;28;20033;-75
2022/09/26 11:32:38;;;;;;;6.65;0.28;;;14.00;99.90;;;;;;5001844;28;20448;-75
2022/09/26 11:35:05;;;;;;;0.63;0.63;;;14.00;99.90;;;;;;5002522;28;20536;-75
2022/09/26 11:37:40;;;;;;;0.10;0.10;;;14.20;99.90;;;;;;5019973;28;20033;-75
2022/09/26 11:40:21;;;;;;;0.20;0.20;;;14.40;99.90;;;;;;4985711;28;20033;-75
2022/09/26 11:43:07;;;;;;;0.17;0.17;;;14.40;99.90;;;;;;5017953;28;20498;-75
2022/09/26 11:45:36;;;;;;;0.30;0.30;;;15.10;99.90;;;;;;5020359;28;20032;-75
2022/09/26 11:48:27;;;;;;;0.10;0.10;;;16.40;99.90;;;;;;5020396;28;20034;-75
2022/09/26 11:51:13;;;;;;;0.15;0.15;;;16.30;99.90;;;;;;5020116;28;20552;-76
2022/09/26 11:54:01;;;;;;;1.48;1.38;;;15.90;99.90;;;;;;5019485;28;20068;-75
2022/09/26 11:56:37;;;;;;;1.80;0.50;;;16.10;99.90;;;;;;5020477;28;20100;-76
2022/09/26 11:59:22;;;;;;;1.00;0.30;;;16.60;99.90;;;;;;5021727;28;20440;-75
2022/09/26 12:02:30;;;;;;;0.28;0.28;;;17.60;99.90;;;;;;4987931;28;20509;-75
2022/09/26 12:05:14;;;;;;;0.08;0.08;;;17.70;99.90;;;;;;5003089;28;20030;-76
2022/09/26 12:08:03;;;;;;;0.08;0.08;;;17.50;99.90;;;;;;5021197;28;20379;-76
2022/09/26 12:10:53;;;;;;;0.25;0.25;;;18.30;99.90;;;;;;5004503;28;20524;-76
2022/09/26 12:13:47;;;;;;;1.05;0.65;;;18.60;99.90;;;;;;5023289;28;20037;-75
2022/09/26 12:16:40;;;;;;;0.70;0.65;;;18.60;99.90;;;;;;5013718;28;20493;-76
2022/09/26 12:19:12;;;;;;;0.55;0.20;;;17.90;99.90;;;;;;5023417;28;20075;-75
2022/09/26 12:25:06;;;;;;;0.10;0.10;;;17.80;99.90;;;;;;5023519;28;20074;-75
2022/09/26 12:28:05;;;;;;;0.17;0.17;;;17.50;99.90;;;;;;5023058;28;20406;-76
2022/09/26 12:30:41;;;;;;;0.40;0.17;;;18.00;99.90;;;;;;5023769;28;20022;-75
2022/09/26 12:33:34;;;;;;;0.52;0.40;;;17.50;99.90;;;;;;5023445;28;20030;-75
2022/09/26 12:36:08;;;;;;;0.47;0.45;;;17.80;99.90;;;;;;5022605;28;20033;-75
2022/09/26 12:38:37;;;;;;;0.10;0.10;;;17.40;99.90;;;;;;5022947;28;20029;-75
2022/09/26 12:41:13;;;;;;;0.57;0.50;;;17.30;99.90;;;;;;4988282;28;20104;-75
2022/09/26 12:44:08;;;;;;;0.82;0.82;;;17.10;99.50;;;;;;5023627;28;20030;-75
2022/09/26 12:46:49;;;;;;;0.20;0.20;;;16.70;99.90;;;;;;4988180;28;20029;-75
2022/09/26 12:49:40;;;;;;;0.22;0.22;;;16.40;99.90;;;;;;5022591;28;20018;-76
2022/09/26 12:52:12;;;;;;;0.05;0.05;;;16.40;99.90;;;;;;5022780;28;20037;-76
2022/09/26 12:54:40;;;;;;;0.30;0.30;;;16.90;99.90;;;;;;5022083;28;20029;-75
2022/09/26 12:57:09;;;;;;;0.10;0.10;;;17.50;99.90;;;;;;5004732;28;20037;-76
2022/09/26 13:00:08;;;;;;;0.00;0.00;;;17.50;99.90;;;;;;5003796;28;20132;-75
2022/09/26 13:02:46;;;;;;;0.10;0.10;;;17.70;99.90;;;;;;4988298;28;20140;-75
2022/09/26 13:05:27;;;;;;;0.40;0.40;;;17.80;99.30;;;;;;5022447;28;20061;-75
2022/09/26 13:08:07;;;;;;;0.10;0.10;;;17.40;99.30;;;;;;5004402;28;20029;-75
2022/09/26 13:10:51;;;;;;;2.65;0.50;;;17.00;99.30;;;;;;5022207;28;20164;-75
2022/09/26 13:13:29;;;;;;;0.52;0.40;;;16.80;99.90;;;;;;5004132;28;20037;-75
2022/09/26 13:16:13;;;;;;;0.55;0.55;;;16.90;99.70;;;;;;5021803;28;20029;-75
2022/09/26 13:18:46;;;;;;;0.10;0.10;;;17.20;99.90;;;;;;5022381;28;20038;-76
2022/09/26 13:21:23;;;;;;;0.63;0.52;;;17.50;99.90;;;;;;5022051;28;20049;-76
2022/09/26 13:24:00;;;;;;;0.38;0.20;;;17.50;98.90;;;;;;5022458;28;20087;-76
2022/09/26 13:26:47;;;;;;;7.85;1.25;;;17.80;98.40;;;;;;5022267;28;20037;-76
2022/09/26 13:29:21;;;;;;;0.75;0.75;;;17.30;96.30;;;;;;5021667;28;20037;-76
2022/09/26 13:31:54;;;;;;;0.17;0.17;;;16.80;97.40;;;;;;5022125;28;20036;-76
2022/09/26 13:34:29;;;;;;;0.32;0.30;;;16.40;99.90;;;;;;5021213;28;20025;-76
2022/09/26 13:36:58;;;;;;;0.10;0.10;;;16.60;98.80;;;;;;5004390;28;20056;-76
2022/09/26 13:39:49;;;;;;;0.30;0.30;;;16.30;99.10;;;;;;5004123;28;20428;-76